Time;durP1;ratioP1;P1;durP2;ratioP2;P2;SDS_P1;SDS_P2;PMS_P1;PMS_P2;Temp;Humidity;BMP_temperature;BMP_pressure;BME280_temperature;BME280_humidity;BME280_pressure;Samples;Min_cycle;Max_cycle;Signal;HPM_P1;HPM_P2
2024/02/13 00:02:15;;;;;;;;;52.00;41.00;;;;;12.00;100.00;97957.75;6237120;28;96483;-54
2024/02/13 00:05:20;;;;;;;;;52.60;42.00;;;;;11.96;100.00;97959.31;6236051;28;96784;-55
2024/02/13 00:08:23;;;;;;;;;54.00;43.50;;;;;11.61;100.00;97904.88;6237660;28;96604;-55
2024/02/13 00:11:46;;;;;;;;;55.00;43.00;;;;;11.99;100.00;97960.69;6218301;28;96302;-54
2024/02/13 00:14:51;;;;;;;;;56.00;42.80;;;;;12.00;100.00;97965.03;6198922;28;96876;-55
2024/02/13 00:17:55;;;;;;;;;53.00;41.00;;;;;11.98;100.00;97978.78;6193512;28;97718;-55
2024/02/13 00:21:00;;;;;;;;;51.25;41.75;;;;;11.99;100.00;97988.53;6194445;28;96553;-55
2024/02/13 00:24:04;;;;;;;;;50.00;41.00;;;;;11.99;100.00;97988.53;6212611;28;96336;-56
2024/02/13 00:27:07;;;;;;;;;48.00;40.00;;;;;12.01;100.00;97994.50;6211261;28;96348;-55
2024/02/13 00:30:12;;;;;;;;;52.40;42.00;;;;;12.05;100.00;97994.81;6228676;27;96554;-55
2024/02/13 00:33:35;;;;;;;;;49.80;40.20;;;;;12.04;100.00;97999.38;6240276;28;96821;-56
2024/02/13 00:36:51;;;;;;;;;47.00;38.00;;;;;11.92;100.00;97985.22;6240258;28;96338;-55
2024/02/13 00:39:54;;;;;;;;;47.60;39.00;;;;;12.05;100.00;98005.59;6239677;28;97136;-55
2024/02/13 00:42:57;;;;;;;;;45.00;37.00;;;;;11.97;100.00;98009.56;6241182;28;96487;-55
2024/02/13 00:46:01;;;;;;;;;48.00;38.60;;;;;12.00;100.00;98011.78;6241346;28;96342;-55
2024/02/13 00:49:05;;;;;;;;;47.00;37.00;;;;;11.94;100.00;98010.06;6241369;28;96387;-55
2024/02/13 00:52:09;;;;;;;;;47.00;39.00;;;;;11.89;100.00;98012.69;6222743;28;96850;-55
2024/02/13 00:55:13;;;;;;;;;49.80;39.00;;;;;11.81;100.00;98013.16;6241243;28;96283;-57
2024/02/13 00:58:16;;;;;;;;;48.60;38.60;;;;;11.73;100.00;98014.38;6222243;28;98774;-57
2024/02/13 01:01:19;;;;;;;;;44.50;36.25;;;;;11.69;100.00;98023.22;6240283;28;96954;-57
2024/02/13 01:04:22;;;;;;;;;44.40;36.40;;;;;11.61;100.00;98023.66;6239273;28;96397;-57
2024/02/13 01:07:28;;;;;;;;;39.33;33.00;;;;;11.54;100.00;98037.31;6240633;28;96677;-57
2024/02/13 01:10:31;;;;;;;;;42.80;35.60;;;;;11.51;100.00;98037.81;6240560;28;96487;-57
2024/02/13 01:13:34;;;;;;;;;41.60;35.00;;;;;11.50;100.00;98044.28;6222005;28;96575;-57
2024/02/13 01:16:40;;;;;;;;;44.33;35.67;;;;;11.50;100.00;98048.84;6240221;28;96460;-57
2024/02/13 01:19:48;;;;;;;;;41.00;34.20;;;;;11.43;100.00;98045.53;6240122;28;96696;-57
2024/02/13 01:22:53;;;;;;;;;41.80;35.60;;;;;11.43;100.00;98067.13;6240091;28;96563;-57
2024/02/13 01:25:59;;;;;;;;;41.20;34.80;;;;;11.37;100.00;98060.81;6240102;28;96316;-57
2024/02/13 01:29:02;;;;;;;;;40.00;33.75;;;;;11.29;100.00;98053.94;6240261;28;96308;-57
2024/02/13 01:32:07;;;;;;;;;35.50;31.00;;;;;11.20;100.00;98052.72;6239905;28;96260;-57
2024/02/13 01:35:13;;;;;;;;;34.20;32.00;;;;;11.12;100.00;98061.25;6239850;28;96919;-57
2024/02/13 01:38:18;;;;;;;;;34.40;30.40;;;;;11.03;100.00;98061.88;6239002;28;96723;-57
2024/02/13 01:41:21;;;;;;;;;34.20;30.60;;;;;10.97;100.00;98060.97;6237838;28;96498;-57
2024/02/13 01:44:27;;;;;;;;;38.00;32.00;;;;;10.96;100.00;98072.00;6221082;28;96469;-57
2024/02/13 01:47:30;;;;;;;;;37.20;32.60;;;;;10.92;100.00;98074.38;6237894;28;96950;-57
2024/02/13 01:50:36;;;;;;;;;37.20;31.00;;;;;10.88;100.00;98075.94;6254666;27;96367;-57
2024/02/13 01:53:41;;;;;;;;;36.00;30.20;;;;;10.78;100.00;98081.13;6262673;27;96602;-57
2024/02/13 01:56:46;;;;;;;;;33.80;30.00;;;;;10.82;100.00;98088.50;6261632;27;96482;-57
2024/02/13 01:59:50;;;;;;;;;34.20;30.00;;;;;10.79;100.00;98085.47;6238156;28;96478;-57
2024/02/13 02:02:54;;;;;;;;;35.60;30.00;;;;;10.76;100.00;98094.03;6269683;22;97636;-58
2024/02/13 02:05:59;;;;;;;;;32.00;29.00;;;;;10.62;100.00;98077.34;6267346;27;96325;-56
2024/02/13 02:09:07;;;;;;;;;32.25;28.00;;;;;10.70;100.00;98108.50;6264450;27;96533;-56
2024/02/13 02:12:11;;;;;;;;;35.60;29.80;;;;;10.60;100.00;98095.66;6264319;27;96251;-56
2024/02/13 02:15:16;;;;;;;;;35.00;31.00;;;;;10.61;100.00;98107.22;6245914;27;97572;-56
2024/02/13 02:18:20;;;;;;;;;33.60;30.00;;;;;10.55;100.00;98113.59;6263796;27;96299;-56
2024/02/13 02:21:25;;;;;;;;;32.33;29.33;;;;;10.50;100.00;98113.50;6263911;27;96343;-56
2024/02/13 02:24:30;;;;;;;;;35.60;30.60;;;;;10.45;100.00;98110.72;6263806;27;97588;-56
2024/02/13 02:27:40;;;;;;;;;39.00;32.00;;;;;10.35;100.00;98116.72;6263984;27;96938;-56
2024/02/13 02:30:44;;;;;;;;;39.00;32.60;;;;;10.29;100.00;98128.44;6263889;27;97574;-56
2024/02/13 02:33:47;;;;;;;;;33.25;29.25;;;;;10.23;100.00;98118.59;6263753;27;96356;-56
2024/02/13 02:36:52;;;;;;;;;32.80;30.00;;;;;10.20;100.00;98125.31;6263831;27;96448;-56
2024/02/13 02:39:55;;;;;;;;;36.00;32.00;;;;;9.98;100.00;98098.13;6263673;27;96385;-56
2024/02/13 02:43:01;;;;;;;;;35.40;31.00;;;;;10.08;100.00;98123.63;6263457;27;97490;-56
2024/02/13 02:46:04;;;;;;;;;36.00;30.40;;;;;10.06;100.00;98129.28;6263653;27;96597;-56
2024/02/13 02:49:08;;;;;;;;;34.60;30.60;;;;;10.06;100.00;98137.34;6263370;27;96277;-56
2024/02/13 02:52:11;;;;;;;;;33.50;30.00;;;;;9.98;100.00;98138.53;6263408;27;96199;-56
2024/02/13 02:55:14;;;;;;;;;36.60;32.00;;;;;10.02;100.00;98144.25;6262565;27;96215;-56
2024/02/13 02:58:19;;;;;;;;;31.25;28.25;;;;;9.90;100.00;98130.00;6263482;27;96451;-56
2024/02/13 03:01:22;;;;;;;;;36.60;32.00;;;;;10.00;100.00;98157.16;6263055;27;96202;-56
2024/02/13 03:04:26;;;;;;;;;36.00;31.20;;;;;9.99;100.00;98160.88;6238215;28;96317;-56
2024/02/13 03:07:29;;;;;;;;;36.80;30.00;;;;;9.96;100.00;98155.97;6237778;28;96326;-56
2024/02/13 03:10:33;;;;;;;;;36.00;32.00;;;;;9.93;100.00;98168.03;6237979;28;96278;-56
2024/02/13 03:13:38;;;;;;;;;33.25;30.25;;;;;9.97;100.00;98168.38;6237695;28;96495;-56
2024/02/13 03:16:43;;;;;;;;;35.25;30.25;;;;;9.97;100.00;98173.75;6238441;28;96482;-57
2024/02/13 03:19:46;;;;;;;;;36.50;32.00;;;;;9.91;100.00;98172.84;6237976;28;96539;-57
2024/02/13 03:22:49;;;;;;;;;37.60;32.00;;;;;9.92;100.00;98179.06;6237782;28;96324;-57
2024/02/13 03:25:53;;;;;;;;;36.75;31.50;;;;;9.89;100.00;98190.28;6238071;28;96301;-57
2024/02/13 03:29:17;;;;;;;;;31.00;28.00;;;;;9.79;100.00;98179.25;6237403;28;96210;-57
2024/02/13 03:32:20;;;;;;;;;33.00;30.00;;;;;9.85;100.00;98187.22;6219562;28;96539;-57
2024/02/13 03:35:25;;;;;;;;;36.25;31.00;;;;;9.85;100.00;98198.00;6237657;28;96317;-57
2024/02/13 03:38:29;;;;;;;;;32.60;28.60;;;;;9.82;100.00;98205.75;6238393;28;96321;-57
2024/02/13 03:41:32;;;;;;;;;35.60;30.80;;;;;9.80;100.00;98205.97;6237906;28;96284;-57
2024/02/13 03:44:37;;;;;;;;;32.00;29.00;;;;;9.75;100.00;98202.31;6237838;28;96378;-57
2024/02/13 03:47:40;;;;;;;;;30.80;29.00;;;;;9.68;100.00;98212.38;6218691;28;96953;-57
2024/02/13 03:50:44;;;;;;;;;33.60;30.00;;;;;9.58;100.00;98218.31;6230665;28;96233;-57
2024/02/13 03:53:48;;;;;;;;;34.00;30.00;;;;;9.47;100.00;98219.13;6210971;28;96366;-57
2024/02/13 03:56:51;;;;;;;;;30.00;28.00;;;;;9.45;100.00;98216.66;6209427;28;96704;-57
2024/02/13 03:59:56;;;;;;;;;31.60;28.00;;;;;9.28;100.00;98220.25;6209670;28;97342;-57
2024/02/13 04:02:59;;;;;;;;;34.00;30.40;;;;;8.93;100.00;98196.75;6195988;28;96740;-57
2024/02/13 04:06:02;;;;;;;;;36.00;29.00;;;;;9.06;100.00;98236.06;6212433;28;96876;-57
2024/02/13 04:09:07;;;;;;;;;30.75;28.50;;;;;8.98;100.00;98234.53;6214317;28;96534;-57
2024/02/13 04:12:10;;;;;;;;;35.40;29.20;;;;;8.95;100.00;98242.22;6215362;28;96485;-57
2024/02/13 04:15:15;;;;;;;;;31.00;27.00;;;;;8.91;100.00;98251.78;6215132;28;97553;-57
2024/02/13 04:18:26;;;;;;;;;32.80;29.00;;;;;8.88;100.00;98247.69;6215641;28;96591;-57
2024/02/13 04:21:29;;;;;;;;;27.20;26.00;;;;;8.91;100.00;98255.28;6215384;28;97096;-57
2024/02/13 04:24:33;;;;;;;;;29.60;25.00;;;;;8.92;100.00;98265.00;6215536;28;98521;-57
2024/02/13 04:27:36;;;;;;;;;22.80;21.00;;;;;8.89;100.00;98238.59;6218083;28;96382;-57
2024/02/13 04:30:41;;;;;;;;;30.00;27.60;;;;;9.06;100.00;98260.28;6217186;28;96622;-57
2024/02/13 04:33:44;;;;;;;;;28.80;26.80;;;;;9.08;100.00;98264.38;6216280;28;96881;-57
2024/02/13 04:36:49;;;;;;;;;26.50;24.50;;;;;9.03;100.00;98252.66;6215367;28;96470;-57
2024/02/13 04:39:52;;;;;;;;;31.20;28.40;;;;;9.14;100.00;98268.84;6216242;28;96336;-57
2024/02/13 04:42:56;;;;;;;;;27.00;25.00;;;;;9.14;100.00;98263.47;6215600;28;96476;-57
2024/02/13 04:46:02;;;;;;;;;26.00;24.00;;;;;9.15;100.00;98272.34;6215577;28;96401;-57
2024/02/13 04:49:05;;;;;;;;;27.00;25.80;;;;;9.17;100.00;98267.56;6213735;28;96305;-57
2024/02/13 04:52:11;;;;;;;;;26.75;25.00;;;;;9.21;100.00;98263.38;6219838;28;96819;-57
2024/02/13 04:55:14;;;;;;;;;30.40;25.40;;;;;9.22;100.00;98278.47;6203049;28;96315;-56
2024/02/13 04:58:20;;;;;;;;;28.00;25.00;;;;;9.23;100.00;98276.59;6212559;28;96318;-57
2024/02/13 05:01:25;;;;;;;;;25.00;23.00;;;;;9.15;100.00;98283.09;6192839;28;96341;-57
2024/02/13 05:07:50;;;;;;;;;29.40;25.40;;;;;9.15;100.00;98293.88;6218687;28;96370;-57
2024/02/13 05:10:53;;;;;;;;;26.00;24.00;;;;;9.16;100.00;98298.19;6206492;28;96699;-57
2024/02/13 05:13:59;;;;;;;;;24.00;23.00;;;;;9.17;100.00;98305.22;6216212;28;97152;-57
2024/02/13 05:17:04;;;;;;;;;27.40;25.00;;;;;9.21;100.00;98314.47;6224692;27;96803;-57
2024/02/13 05:20:11;;;;;;;;;24.00;21.00;;;;;9.18;100.00;98306.88;6222248;28;97634;-57
2024/02/13 05:23:15;;;;;;;;;26.40;23.00;;;;;9.24;100.00;98314.00;6219719;27;96340;-57
2024/02/13 05:26:20;;;;;;;;;25.00;23.60;;;;;9.26;100.00;98317.31;6213691;28;98322;-58
2024/02/13 05:29:24;;;;;;;;;29.20;25.00;;;;;9.33;100.00;98323.44;6216077;28;96485;-57
2024/02/13 05:32:30;;;;;;;;;28.00;25.00;;;;;9.36;100.00;98333.72;6215954;28;96278;-57
2024/02/13 05:35:35;;;;;;;;;28.00;26.20;;;;;9.44;100.00;98343.34;6216516;28;96374;-58
2024/02/13 05:38:43;;;;;;;;;32.80;28.00;;;;;9.48;100.00;98345.34;6233924;28;96259;-59
2024/02/13 05:41:46;;;;;;;;;30.00;24.00;;;;;9.54;100.00;98349.81;6235432;28;96281;-58
2024/02/13 05:44:50;;;;;;;;;29.00;27.00;;;;;9.61;100.00;98357.00;6234567;28;96346;-59
2024/02/13 05:47:54;;;;;;;;;30.60;28.60;;;;;9.39;100.00;98325.19;6234330;28;96384;-59
2024/02/13 05:50:58;;;;;;;;;27.80;26.60;;;;;9.73;100.00;98366.75;6241896;28;96801;-58
2024/02/13 05:54:19;;;;;;;;;28.60;25.60;;;;;9.78;100.00;98374.94;6238204;28;96398;-59
2024/02/13 05:57:22;;;;;;;;;30.60;24.60;;;;;9.82;100.00;98370.75;6233701;28;96897;-58
2024/02/13 06:00:26;;;;;;;;;25.00;24.80;;;;;9.88;100.00;98377.91;6234434;28;96331;-57
2024/02/13 06:03:32;;;;;;;;;30.75;25.50;;;;;9.93;100.00;98386.13;6248493;28;96416;-57
2024/02/13 06:06:36;;;;;;;;;26.00;23.50;;;;;10.02;100.00;98396.59;6257027;28;96246;-58
2024/02/13 06:09:40;;;;;;;;;25.00;22.40;;;;;10.02;100.00;98394.69;6255894;27;97474;-58
2024/02/13 06:12:44;;;;;;;;;29.60;27.00;;;;;10.05;100.00;98401.50;6256846;28;96814;-58
2024/02/13 06:15:47;;;;;;;;;34.40;29.80;;;;;9.96;100.00;98395.63;6257972;28;96364;-58
2024/02/13 06:18:51;;;;;;;;;31.25;28.25;;;;;10.02;100.00;98400.06;6255693;27;96560;-58
2024/02/13 06:21:55;;;;;;;;;29.00;25.20;;;;;10.10;100.00;98391.69;6257660;28;96387;-59
2024/02/13 06:24:58;;;;;;;;;31.00;28.20;;;;;10.07;100.00;98408.28;6258675;28;96865;-58
2024/02/13 06:28:01;;;;;;;;;32.00;30.00;;;;;10.09;100.00;98408.06;6256733;27;96321;-60
2024/02/13 06:31:04;;;;;;;;;32.60;28.00;;;;;10.02;100.00;98408.97;6254166;28;97119;-59
2024/02/13 06:34:09;;;;;;;;;30.00;27.00;;;;;10.12;100.00;98427.28;6230071;28;96390;-58
2024/02/13 06:37:12;;;;;;;;;32.00;29.00;;;;;10.12;100.00;98438.03;6231245;28;96517;-59
2024/02/13 06:40:16;;;;;;;;;27.60;25.00;;;;;10.16;100.00;98444.66;6234032;28;96341;-60
2024/02/13 06:43:20;;;;;;;;;32.00;29.00;;;;;10.20;100.00;98443.16;6240680;28;96449;-60
2024/02/13 06:46:23;;;;;;;;;33.80;30.00;;;;;10.25;100.00;98445.97;6253242;28;96991;-58
2024/02/13 06:49:28;;;;;;;;;34.40;30.60;;;;;10.29;100.00;98451.72;6239284;28;96564;-58
2024/02/13 06:52:34;;;;;;;;;34.00;29.50;;;;;10.26;100.00;98449.50;6240100;27;96311;-58
2024/02/13 06:55:37;;;;;;;;;34.00;29.60;;;;;10.29;100.00;98452.56;6240075;28;96865;-58
2024/02/13 06:58:43;;;;;;;;;33.00;29.80;;;;;10.32;100.00;98456.63;6240299;28;97485;-58
2024/02/13 07:01:46;;;;;;;;;36.20;30.40;;;;;10.38;100.00;98461.94;6239386;28;96286;-57
2024/02/13 07:04:51;;;;;;;;;34.00;30.00;;;;;10.43;100.00;98467.47;6230566;28;96426;-57
2024/02/13 07:07:54;;;;;;;;;35.00;30.00;;;;;10.47;100.00;98467.00;6237023;28;96767;-57
2024/02/13 07:10:58;;;;;;;;;38.75;31.75;;;;;10.50;100.00;98480.03;6235748;28;98049;-57
2024/02/13 07:14:15;;;;;;;;;33.25;29.25;;;;;10.54;100.00;98473.94;6239663;27;96274;-58
2024/02/13 07:17:18;;;;;;;;;34.20;29.60;;;;;10.60;100.00;98486.50;6237957;28;96824;-56
2024/02/13 07:20:23;;;;;;;;;33.00;30.00;;;;;10.68;100.00;98498.81;6238772;28;96334;-57
2024/02/13 07:23:27;;;;;;;;;34.40;29.40;;;;;10.70;100.00;98481.31;6239407;28;97004;-57
2024/02/13 07:26:30;;;;;;;;;30.00;27.00;;;;;10.78;100.00;98497.19;6238771;28;96372;-57
2024/02/13 07:29:37;;;;;;;;;33.25;30.00;;;;;10.79;100.00;98490.75;6238903;28;96341;-57
2024/02/13 07:32:40;;;;;;;;;31.00;29.00;;;;;11.06;100.00;98501.06;6239046;28;96504;-57
2024/02/13 07:35:45;;;;;;;;;33.00;30.00;;;;;11.18;100.00;98505.41;6239185;27;96255;-57
2024/02/13 07:38:49;;;;;;;;;34.00;31.00;;;;;11.28;100.00;98508.34;6222098;27;96286;-57
2024/02/13 07:41:52;;;;;;;;;34.00;30.00;;;;;11.30;100.00;98522.41;6213456;28;97154;-57
2024/02/13 07:44:56;;;;;;;;;33.00;30.00;;;;;11.40;100.00;98521.81;6212756;28;96345;-57
2024/02/13 07:48:02;;;;;;;;;32.00;28.40;;;;;11.41;100.00;98530.75;6213663;28;96131;-57
2024/02/13 07:51:06;;;;;;;;;33.00;30.00;;;;;11.48;100.00;98529.59;6212619;28;96303;-57
2024/02/13 07:54:10;;;;;;;;;30.60;28.20;;;;;11.55;100.00;98527.56;6211011;28;96461;-57
2024/02/13 07:57:16;;;;;;;;;33.00;29.00;;;;;11.57;100.00;98528.16;6213884;28;97122;-57
2024/02/13 08:00:23;;;;;;;;;31.25;28.00;;;;;11.73;100.00;98539.34;6212752;28;96335;-57
2024/02/13 08:03:27;;;;;;;;;36.40;31.60;;;;;11.78;100.00;98540.22;6217470;28;96510;-57
2024/02/13 08:06:34;;;;;;;;;33.40;30.00;;;;;11.76;100.00;98534.28;6230667;28;97058;-57
2024/02/13 08:09:39;;;;;;;;;30.40;27.00;;;;;11.86;100.00;98536.34;6226581;28;96907;-57
2024/02/13 08:12:42;;;;;;;;;34.60;30.00;;;;;12.05;100.00;98549.47;6209901;28;96528;-57
2024/02/13 08:15:47;;;;;;;;;31.80;27.60;;;;;12.48;100.00;98543.53;6209909;28;96454;-57
2024/02/13 08:18:51;;;;;;;;;33.50;28.00;;;;;13.33;100.00;98558.81;6224914;28;97677;-58
2024/02/13 08:21:56;;;;;;;;;35.00;30.00;;;;;14.66;100.00;98550.25;6235500;28;96519;-57
2024/02/13 08:25:00;;;;;;;;;29.00;27.00;;;;;15.74;100.00;98552.75;6235761;28;96380;-57
2024/02/13 08:28:10;;;;;;;;;33.00;29.60;;;;;18.89;100.00;98564.19;6232533;28;96434;-58
2024/02/13 08:31:13;;;;;;;;;28.80;27.40;;;;;22.33;100.00;98572.53;6223491;28;96411;-59
2024/02/13 08:34:17;;;;;;;;;26.00;23.00;;;;;23.41;100.00;98570.63;6235974;28;96419;-58
2024/02/13 08:37:22;;;;;;;;;28.67;24.67;;;;;22.62;100.00;98581.25;6220403;28;97197;-58
2024/02/13 08:40:25;;;;;;;;;27.00;24.40;;;;;22.04;100.00;98587.34;6211515;28;96417;-58
2024/02/13 08:43:28;;;;;;;;;32.25;30.00;;;;;22.55;100.00;98588.28;6231189;27;96587;-58
2024/02/13 08:46:32;;;;;;;;;22.75;20.75;;;;;22.87;98.42;98593.66;6223333;28;96876;-58
2024/02/13 08:49:35;;;;;;;;;21.50;19.50;;;;;23.17;97.17;98589.38;6209531;28;96639;-58
2024/02/13 08:52:40;;;;;;;;;23.00;17.00;;;;;23.78;90.48;98590.66;6224464;27;96369;-58
2024/02/13 08:55:43;;;;;;;;;20.00;19.00;;;;;25.59;79.72;98597.47;6238610;27;96840;-58
2024/02/13 08:58:46;;;;;;;;;20.40;17.00;;;;;27.55;69.24;98572.75;6242373;27;96334;-58
2024/02/13 09:01:50;;;;;;;;;19.40;17.40;;;;;28.48;63.60;98592.56;6234235;27;96429;-58
2024/02/13 09:04:53;;;;;;;;;17.00;16.00;;;;;29.03;60.24;98592.75;6212882;28;97030;-58
2024/02/13 09:07:58;;;;;;;;;17.20;17.00;;;;;30.29;60.31;98595.94;6218032;28;96306;-58
2024/02/13 09:11:01;;;;;;;;;18.60;15.00;;;;;30.55;58.37;98601.78;6228160;28;96810;-58
2024/02/13 09:14:04;;;;;;;;;15.80;14.00;;;;;30.08;58.90;98593.41;6238972;28;96398;-57
2024/02/13 09:17:08;;;;;;;;;14.00;13.75;;;;;28.58;62.46;98603.19;6226422;28;96286;-58
2024/02/13 09:20:14;;;;;;;;;16.60;14.60;;;;;26.96;69.47;98599.75;6215436;28;97070;-57
2024/02/13 09:23:20;;;;;;;;;16.00;13.00;;;;;24.99;77.09;98593.56;6204149;28;96249;-58
2024/02/13 09:26:23;;;;;;;;;16.00;13.60;;;;;23.48;83.66;98598.56;6214789;28;96322;-58
2024/02/13 09:29:28;;;;;;;;;13.00;11.00;;;;;22.28;87.20;98605.59;6220803;28;96252;-58
2024/02/13 09:32:34;;;;;;;;;13.50;12.50;;;;;21.30;93.38;98595.78;6208115;28;95926;-58
2024/02/13 09:35:38;;;;;;;;;13.00;11.25;;;;;20.27;99.26;98602.88;6202997;28;96402;-58
2024/02/13 09:38:42;;;;;;;;;12.20;12.00;;;;;19.48;100.00;98606.13;6190000;28;96415;-58
2024/02/13 09:41:46;;;;;;;;;12.00;10.00;;;;;18.79;100.00;98618.88;6199365;28;96411;-58
2024/02/13 09:44:49;;;;;;;;;13.75;11.75;;;;;18.15;100.00;98618.81;6204716;28;96478;-58
2024/02/13 09:47:53;;;;;;;;;13.00;12.00;;;;;17.55;100.00;98620.53;6189789;28;97054;-58
2024/02/13 09:51:01;;;;;;;;;12.60;12.60;;;;;17.01;100.00;98624.84;6208276;28;96969;-58
2024/02/13 09:54:08;;;;;;;;;12.80;11.00;;;;;16.53;100.00;98626.03;6221015;28;96407;-59
2024/02/13 09:57:13;;;;;;;;;10.75;9.00;;;;;15.92;100.00;98639.34;6212431;28;96431;-58
2024/02/13 10:00:18;;;;;;;;;7.00;7.00;;;;;15.47;100.00;98640.59;6214438;28;96317;-57
2024/02/13 10:03:22;;;;;;;;;5.00;5.00;;;;;15.20;100.00;98639.81;6214824;28;96350;-58
2024/02/13 10:06:27;;;;;;;;;8.00;7.00;;;;;14.95;100.00;98632.25;6214648;28;96441;-58
2024/02/13 10:09:33;;;;;;;;;7.75;7.75;;;;;14.74;100.00;98631.22;6217014;28;96359;-58
2024/02/13 10:12:39;;;;;;;;;10.00;8.25;;;;;14.76;100.00;98630.94;6235770;28;96497;-58
2024/02/13 10:15:44;;;;;;;;;9.00;9.00;;;;;14.88;100.00;98625.38;6214133;28;96342;-57
2024/02/13 10:18:50;;;;;;;;;10.00;9.60;;;;;15.46;100.00;98635.41;6215501;28;96347;-58
2024/02/13 10:22:05;;;;;;;;;12.40;11.40;;;;;17.32;100.00;98640.16;6229156;28;96632;-57
2024/02/13 10:25:11;;;;;;;;;12.50;11.50;;;;;19.12;100.00;98639.16;6237134;28;96125;-57
2024/02/13 10:28:19;;;;;;;;;11.75;10.75;;;;;20.63;100.00;98644.38;6215165;28;96286;-57
2024/02/13 10:31:26;;;;;;;;;10.25;10.00;;;;;21.27;100.00;98635.56;6208355;28;96569;-58
2024/02/13 10:34:29;;;;;;;;;12.50;10.50;;;;;21.23;99.52;98650.97;6210119;28;96669;-57
2024/02/13 10:37:32;;;;;;;;;9.60;9.00;;;;;20.59;96.72;98637.84;6210868;28;96556;-57
2024/02/13 10:40:39;;;;;;;;;8.00;8.00;;;;;20.01;91.68;98642.56;6209005;28;96606;-57
2024/02/13 10:43:42;;;;;;;;;9.00;8.33;;;;;19.34;92.82;98645.03;6218150;28;97036;-58
2024/02/13 10:46:50;;;;;;;;;6.00;6.00;;;;;18.48;87.67;98640.00;6236506;28;96457;-57
2024/02/13 10:49:54;;;;;;;;;6.40;6.00;;;;;17.85;94.74;98648.88;6237723;28;96956;-57
2024/02/13 10:53:00;;;;;;;;;8.00;7.00;;;;;17.29;100.00;98648.88;6236357;28;96227;-58
2024/02/13 10:56:08;;;;;;;;;9.00;7.60;;;;;17.21;100.00;98647.47;6235645;28;97025;-57
2024/02/13 10:59:12;;;;;;;;;9.00;8.00;;;;;18.25;100.00;98642.53;6235781;28;96651;-57
2024/02/13 11:02:17;;;;;;;;;8.00;8.00;;;;;20.57;89.54;98638.16;6223857;27;96735;-57
2024/02/13 11:05:25;;;;;;;;;9.00;8.75;;;;;23.29;74.91;98647.41;6260457;27;96554;-57
2024/02/13 11:08:29;;;;;;;;;8.00;7.20;;;;;24.40;64.23;98636.34;6260631;27;96450;-58
2024/02/13 11:11:34;;;;;;;;;7.00;5.25;;;;;24.25;65.98;98633.19;6260374;27;96877;-58
2024/02/13 11:14:38;;;;;;;;;7.00;6.00;;;;;23.40;65.59;98643.31;6259918;27;96258;-58
2024/02/13 11:17:45;;;;;;;;;8.00;7.00;;;;;22.20;66.84;98634.56;6260402;27;96791;-58
2024/02/13 11:20:53;;;;;;;;;7.40;7.00;;;;;21.24;72.25;98629.88;6262754;27;96998;-58
2024/02/13 11:24:21;;;;;;;;;5.50;5.00;;;;;20.19;76.37;98637.19;6263163;27;96302;-57
2024/02/13 11:27:27;;;;;;;;;6.00;5.00;;;;;19.37;80.97;98638.16;6265608;27;96321;-54
2024/02/13 11:30:34;;;;;;;;;7.00;5.25;;;;;18.56;84.16;98641.38;6269724;27;96254;-54
2024/02/13 11:33:38;;;;;;;;;8.00;7.00;;;;;17.86;85.67;98648.63;6269253;27;96388;-54
2024/02/13 11:36:48;;;;;;;;;5.00;5.00;;;;;17.26;89.86;98646.66;6250554;27;96158;-54
2024/02/13 11:39:53;;;;;;;;;6.40;6.40;;;;;16.83;91.13;98645.22;6269309;27;96391;-53
2024/02/13 11:42:58;;;;;;;;;4.20;4.00;;;;;16.56;93.54;98642.66;6266952;27;96984;-53
2024/02/13 11:46:02;;;;;;;;;5.00;4.00;;;;;16.38;94.61;98646.66;6233178;27;96399;-53
2024/02/13 11:49:09;;;;;;;;;5.00;4.00;;;;;16.15;93.93;98649.81;6266899;27;96301;-53
2024/02/13 11:52:15;;;;;;;;;5.00;5.00;;;;;15.97;94.96;98642.91;6267752;27;96520;-54
2024/02/13 11:55:19;;;;;;;;;4.00;4.00;;;;;15.65;98.35;98630.44;6267412;27;96421;-53
2024/02/13 11:58:26;;;;;;;;;6.00;4.20;;;;;15.60;98.63;98655.66;6248499;27;96963;-55
2024/02/13 12:01:33;;;;;;;;;5.00;5.00;;;;;15.35;99.86;98653.53;6266761;27;98079;-55
2024/02/13 12:04:41;;;;;;;;;4.00;4.00;;;;;15.21;100.00;98652.31;6249055;27;98052;-55
2024/02/13 12:07:44;;;;;;;;;5.00;4.40;;;;;15.11;100.00;98649.50;6266524;27;96169;-55
2024/02/13 12:10:48;;;;;;;;;7.00;6.00;;;;;15.06;100.00;98641.28;6266638;27;96830;-55
2024/02/13 12:13:54;;;;;;;;;4.00;4.00;;;;;14.96;100.00;98641.19;6266364;27;96908;-54
2024/02/13 12:17:03;;;;;;;;;3.40;3.00;;;;;14.78;100.00;98645.09;6264665;27;96411;-56
2024/02/13 12:20:12;;;;;;;;;4.00;4.00;;;;;14.79;100.00;98652.16;6265844;27;96393;-55
2024/02/13 12:23:16;;;;;;;;;3.00;3.00;;;;;14.76;100.00;98649.13;6263892;27;96535;-56
2024/02/13 12:26:19;;;;;;;;;2.80;2.80;;;;;14.82;100.00;98651.63;6246066;27;96359;-55
2024/02/13 12:29:25;;;;;;;;;3.00;2.25;;;;;14.71;100.00;98628.16;6268703;27;96959;-55
2024/02/13 12:32:33;;;;;;;;;4.00;3.00;;;;;14.91;100.00;98658.25;6269009;27;96643;-55
2024/02/13 12:35:39;;;;;;;;;3.50;2.50;;;;;14.88;100.00;98660.66;6251546;27;96576;-55
2024/02/13 12:38:43;;;;;;;;;3.00;3.00;;;;;14.87;100.00;98662.56;6269215;27;96969;-55
2024/02/13 12:41:51;;;;;;;;;6.00;5.00;;;;;14.78;100.00;98672.22;6267059;27;96635;-56
2024/02/13 12:44:58;;;;;;;;;5.40;5.00;;;;;14.76;100.00;98674.34;6270316;27;96426;-55
2024/02/13 12:48:01;;;;;;;;;6.00;5.80;;;;;14.64;100.00;98679.13;6268827;27;96494;-54
2024/02/13 12:51:08;;;;;;;;;7.00;7.00;;;;;14.56;100.00;98672.22;6270035;27;96319;-54
2024/02/13 12:54:13;;;;;;;;;7.00;6.60;;;;;14.45;100.00;98684.03;6269795;27;96337;-55
2024/02/13 12:57:19;;;;;;;;;7.00;5.00;;;;;14.41;100.00;98682.06;6270319;27;96323;-54
2024/02/13 13:00:24;;;;;;;;;6.00;6.00;;;;;14.42;100.00;98681.81;6270161;27;96346;-54
2024/02/13 13:03:30;;;;;;;;;5.75;5.00;;;;;14.36;100.00;98681.97;6269232;27;96385;-54
2024/02/13 13:06:34;;;;;;;;;6.40;5.00;;;;;14.40;100.00;98686.69;6250858;27;98846;-54
2024/02/13 13:09:39;;;;;;;;;5.80;5.00;;;;;14.31;100.00;98663.75;6269224;27;96350;-55
2024/02/13 13:12:44;;;;;;;;;4.60;4.60;;;;;14.41;100.00;98690.22;6269676;27;96422;-54
2024/02/13 13:15:49;;;;;;;;;7.00;6.00;;;;;14.44;100.00;98687.00;6269834;27;96317;-54
2024/02/13 13:18:52;;;;;;;;;6.60;6.00;;;;;14.43;100.00;98698.91;6250785;27;96558;-54
2024/02/13 13:21:57;;;;;;;;;7.00;6.00;;;;;14.40;100.00;98704.84;6269807;27;96277;-54
2024/02/13 13:25:03;;;;;;;;;5.00;5.00;;;;;14.36;100.00;98704.53;6269389;27;96433;-54
2024/02/13 13:28:09;;;;;;;;;6.50;5.50;;;;;14.37;100.00;98708.06;6269363;27;96357;-54
2024/02/13 13:31:15;;;;;;;;;6.00;5.40;;;;;14.33;100.00;98721.25;6269413;27;96376;-55
2024/02/13 13:34:22;;;;;;;;;7.00;7.00;;;;;14.33;100.00;98724.78;6268916;27;96354;-54
2024/02/13 13:37:28;;;;;;;;;5.40;5.00;;;;;14.13;100.00;98708.22;6268388;27;96283;-54
2024/02/13 13:40:37;;;;;;;;;6.00;5.00;;;;;14.20;100.00;98737.88;6268918;27;96363;-54
2024/02/13 13:43:40;;;;;;;;;3.40;3.40;;;;;14.01;100.00;98734.63;6269295;27;96439;-54
2024/02/13 13:46:45;;;;;;;;;5.00;4.50;;;;;13.85;100.00;98732.72;6269130;27;96313;-55
2024/02/13 13:49:50;;;;;;;;;4.00;4.00;;;;;13.83;100.00;98741.09;6267315;27;96325;-58
2024/02/13 13:52:53;;;;;;;;;4.00;4.00;;;;;13.82;100.00;98742.19;6247806;27;96406;-58
2024/02/13 13:55:56;;;;;;;;;3.20;3.00;;;;;13.88;100.00;98746.59;6265646;27;96345;-58
2024/02/13 13:59:00;;;;;;;;;5.00;5.00;;;;;13.84;100.00;98752.75;6265542;27;96446;-58
2024/02/13 14:02:05;;;;;;;;;6.00;4.40;;;;;13.81;100.00;98747.84;6264930;27;96941;-58
2024/02/13 14:05:10;;;;;;;;;3.60;3.60;;;;;13.82;100.00;98752.19;6265521;27;96260;-56
2024/02/13 14:08:13;;;;;;;;;5.00;4.60;;;;;13.78;100.00;98753.75;6265247;27;96884;-59
2024/02/13 14:11:17;;;;;;;;;6.40;6.00;;;;;13.83;100.00;98761.94;6265360;27;96456;-57
2024/02/13 14:14:21;;;;;;;;;6.00;5.25;;;;;13.87;100.00;98763.94;6265255;27;96684;-58